29TE weather

Pearland Heliport
Pearland, Texas, United States

Public forecast

Using degrees Fahrenheit for public forecast. Weather courtesy of forecast.io.

METAR (pilot weather report)

Closest report is Pearland Regional Airport, 3.0 nm (5.6 km) SE. Retrieved 2019/07/15 18:53 UTC (21 minutes ago):

KLVJ 151853Z AUTO 22005KT 10SM CLR 31/24 A2996 RMK AO2 LTG DSNT N SLP143 T03060239

TAF (pilot weather forecast)

Closest forecast is William P Hobby Airport, 5.2 nm (9.7 km) N. Retrieved 2019/07/15 18:42 UTC (32 minutes ago):

TAF KHOU 151740Z 1518/1618 19010KT P6SM VCTS SCT030CB BKN070 BKN250 TEMPO 1519/1523 VRB10G20KT 6SM -TSRA BR BKN035CB FM152300 20014KT P6SM VCSH SCT040 BKN070 FM160100 18007KT P6SM FEW050 BKN250 FM161000 17003KT P6SM SCT030 FM161500 18008KT P6SM SCT030